Аэропорт
Худжанд (UTDL)

 UTDL / LBD
ЗЦ Центральная Азия
Душанбе (UTDD)
Душанбе (UTDD)
 40.21540, 69.69470  / 1450 ft

 UTDL 191130Z 27007MPS 9999 BKN086 32/02 Q1007 R26/CLRD70 NOSIG RMK QFE718/0957

UTDL_aip_1705
показать схемы

2019 © VATRUS division (Privacy Policy)